Sosnovo-Ozerskoe, Russia
Current Conditions -  °F | °C
As of 7:30 AM on Sunday 23 Nov 2014 (Local Time) from UIAA Reporting Station
Few Clouds Few Clouds  
Wind Chill: -9°   Ceiling: Unl
Heat Index: -9°   Visibility: 6mi
Dew Point: -15°   Wind: 0mph
Humidity: 77%   Direction: NA
Pressure: 30"   Gusts: NA
Location:  52.53°N, 111.55°E
Report Text: UIAA 222330Z 00000MPS 9000 FEW200 M23/M26 Q1016 NOSIG RMKQFE704 29CLRD70
Loading
Personal Weather Stations






























Interactive Weather Map New forecast layout! Learn more

10-Day Weather Forecast

Advertisements
Track Severe Weather on mobile